Williamsport Regional Airport
KIPT : now visible

Airfield :











YOU CAN JOIN US ON...

 
LOGIN :

Register | Disclaimer

   EN    FR    IT 

 









Legend :    VFR   Marginal VFR   IFR   Intensive IFR   Very Intensive IFR
Visi :
Ceiling :
>= 8 km
>= 3000ft
5 to 8 km
1000 to 3000 ft
1500m to 5 km
500 to 1000 ft
800 to 1500m
200 to 500 ft
< 800m
< 200 ft
Symbols :   Thunderstorms  Fog  Heavy snow  Heavy precipitations  Wind > 20 kt






- Airport Elevation : 529 ft
- IATA code : IPT


KIPT - Williamsport Regional

CURRENT METAR :
  • 250854Z AUTO 08006KT 10SM OVC017 17/13 A3015 RMK AO2 SLP207 T01670128 50000

EXPIRED METARs :
  • 250754Z AUTO 14009G16KT 10SM BKN021 OVC041 17/13 A3015 RMK AO2 SLP207 T01720128
  • 250743Z AUTO 12007KT 080V160 10SM BKN021 BKN029 OVC039 17/13 A3015 RMK AO2 T01720128
  • 250654Z AUTO 17009G16KT 10SM SCT023 BKN044 18/13 A3015 RMK AO2 SLP209 T01780128
  • 250622Z AUTO VRB04KT 10SM BKN024 BKN034 OVC042 18/13 A3015 RMK AO2 T01780128
  • 250554Z AUTO VRB03KT 10SM FEW026 FEW033 OVC047 18/13 A3015 RMK AO2 SLP207 T01780128 10211 20178 55004

TAF KIPT
Valid from the 25 at 08:00 until the 26 at 06:00 UTC


250801Z 2508/2606 13007KT P6SM OVC021
FM250900 18010KT P6SM OVC015
FM251600 15005KT P6SM SCT050
KZNY FIR / North America



MET'MAP, your aeronautical weather chart ! - Copyright ORBIFLY December 2007 - Disclaimer

ORBIFLY MET'MAP TEAM :

Programming & Development : Alexandra Zaïnal
Concept & original design : Baudouin d'Aumeries
Assistance for programming : Marc-Olivier Méhu
Technical & hardware support : Manuel Goepfert

Contact : metmap@orbifly.com




SOURCES & CREDITS :

   NOAA       Earth
Advisory